Details From SBSM - Santa Maria
To SBCX - Campo Dos Bugres
Flight Number -
Tags Routegen Generated
Created
Modified
Stats Distance 137 nm / 254 km
Max Altitude 500 ft / 152 m
Waypoints 9
Social Downloads 1
Likes 0
Share VATSIM

Download

Looking for another format? Having issues loading an existing format? Contact us
Advertisement - Login to hide

Notes

Departing runway 9 SBSM. Arriving runway 13 SBCX.

Route

SBSM -29.72_-053.59 -29.70_-053.53 -29.48_-052.71 -29.12_-051.44 -29.11_-051.38 -29.11_-051.31 -29.14_-051.25 SBCX

ID Type Via Altitude Latitude Longitude Leg Dist Tot Dist Heading (true) Name
O SBSM APT - 0 ft / 0 m -29.71199˚ -53.67602˚ - 0 nm - -
-29.72_-053.59 LATLON - 500 ft / 152 m -29.71629˚ -53.59284˚ 4 nm 4 nm 93° / 93° -
-29.70_-053.53 LATLON - 500 ft / 152 m -29.69976˚ -53.52896˚ 3 nm 7 nm 73° / 73° -
-29.48_-052.71 LATLON - 500 ft / 152 m -29.47796˚ -52.71328˚ 44 nm 52 nm 73° / 72° -
-29.12_-051.44 LATLON - 500 ft / 152 m -29.12151˚ -51.44204˚ 69 nm 122 nm 72° / 72° -
-29.11_-051.38 LATLON - 500 ft / 152 m -29.10743˚ -51.37776˚ 3 nm 125 nm 76° / 76° -
-29.11_-051.31 LATLON - 500 ft / 152 m -29.11340˚ -51.31185˚ 3 nm 129 nm 96° / 96° -
-29.14_-051.25 LATLON - 500 ft / 152 m -29.13871˚ -51.25225˚ 3 nm 132 nm 116° / 116° -
O SBCX APT - 0 ft / 0 m -29.19070˚ -51.19460˚ 4 nm 137 nm 136° / 136° -

Altitude Profile

Advertisement - Login to hide

SBSM

Details ICAO SBSM (RIA)
Name Santa Maria
Region Brazil
Timezone America/Sao_Paulo (UTC-3.0)
Stats Elevation 287 ft / 87 m (AMSL)
Location -29.712352° -53.689105°
Runways 2
Magnetic Variation 15.349° W

METAR

SBSM 271300Z 10005KT CAVOK 19/16 Q1021

Decode

TAF

TAF SBSM 270900Z 2712/2724 10005KT CAVOK TN17/2712Z TX26/2718Z RMK PDJ

Decode

Departure Runways

ID Width Length Bearing (true) Bearing (mag) Surface Threshold Offset Overrun Length
02 100 ft / 30 m 5,806 ft / 1,770 m 2.56° 17.91° Asphalt 0 ft / 0 m 185 ft / 56 m
11 148 ft / 45 m 8,836 ft / 2,693 m 93.44° 108.79° Concrete 0 ft / 0 m 1,140 ft / 347 m
20 100 ft / 30 m 5,806 ft / 1,770 m 182.56° 197.91° Asphalt 1,170 ft / 357 m 0 ft / 0 m
29 148 ft / 45 m 8,836 ft / 2,693 m 273.43° 288.78° Concrete 0 ft / 0 m 1,140 ft / 347 m

SBCX

Details ICAO SBCX (CXJ)
Name Campo Dos Bugres
Region Brazil
Timezone America/Sao_Paulo (UTC-3.0)
Stats Elevation 2,472 ft / 753 m (AMSL)
Location -29.197064° -51.187532°
Runways 1
Magnetic Variation 17.260° W

METAR

SBCX 271300Z 03008KT CAVOK 17/13 Q1025

Decode

TAF

Not found

Destination Runways

ID Width Length Bearing (true) Bearing (mag) Surface Threshold Offset Overrun Length
15 98 ft / 30 m 6,469 ft / 1,972 m 135.91° 153.17° Asphalt 902 ft / 275 m 0 ft / 0 m
33 98 ft / 30 m 6,469 ft / 1,972 m 315.91° 333.17° Asphalt 0 ft / 0 m 210 ft / 64 m

Popular Alternatives